Time;durP1;ratioP1;P1;durP2;ratioP2;P2;SDS_P1;SDS_P2;PMS_P1;PMS_P2;Temp;Humidity;BMP_temperature;BMP_pressure;BME280_temperature;BME280_humidity;BME280_pressure;Samples;Min_cycle;Max_cycle;Signal;HPM_P1;HPM_P2
2022/07/25 06:06:07;;;;;;;3.35;2.25;;;;;;;16.56;88.01;98176.77;1837937;77;20900;-62
2022/07/25 06:08:35;;;;;;;2.83;2.20;;;;;;;16.69;87.78;98177.10;1845041;77;20952;-63
2022/07/25 06:11:04;;;;;;;3.08;2.45;;;;;;;16.83;87.46;98172.27;1827127;77;20993;-65
2022/07/25 06:13:32;;;;;;;2.80;2.12;;;;;;;16.98;87.08;98173.84;1841982;77;21409;-65
2022/07/25 06:16:00;;;;;;;3.80;2.17;;;;;;;17.16;86.67;98165.63;1853632;77;21018;-66
2022/07/25 06:18:28;;;;;;;4.72;2.25;;;;;;;17.32;85.78;98173.39;1837616;76;21422;-64
2022/07/25 06:20:54;;;;;;;3.87;1.92;;;;;;;17.46;85.19;98185.56;1835289;76;21004;-65
2022/07/25 06:23:21;;;;;;;2.47;2.00;;;;;;;17.59;84.29;98186.45;1840246;76;21049;-66
2022/07/25 06:25:47;;;;;;;3.50;2.17;;;;;;;17.65;83.54;98185.92;1836862;77;21031;-67
2022/07/25 06:28:14;;;;;;;2.95;2.20;;;;;;;17.70;82.70;98184.37;1841310;77;21104;-67
2022/07/25 06:30:42;;;;;;;5.03;2.33;;;;;;;17.73;81.85;98186.98;1836537;77;21020;-68
2022/07/25 06:33:10;;;;;;;2.37;1.98;;;;;;;17.78;82.27;98183.27;1841872;77;20958;-68
2022/07/25 06:35:37;;;;;;;6.00;2.33;;;;;;;17.86;82.36;98180.48;1847549;77;21454;-66
2022/07/25 06:38:03;;;;;;;2.72;2.05;;;;;;;17.98;81.66;98177.02;1840433;77;20995;-67
2022/07/25 06:40:30;;;;;;;3.92;2.27;;;;;;;18.05;81.19;98174.00;1839073;77;22863;-66
2022/07/25 06:42:57;;;;;;;2.77;2.00;;;;;;;18.16;80.79;98175.74;1847430;76;20872;-66
2022/07/25 06:45:24;;;;;;;4.42;2.58;;;;;;;18.25;80.12;98176.44;1821086;78;20916;-67
2022/07/25 06:47:51;;;;;;;5.03;2.60;;;;;;;18.30;79.54;98177.59;1820970;78;20971;-64
2022/07/25 06:50:18;;;;;;;3.58;2.47;;;;;;;18.30;79.50;98178.94;1823638;77;20946;-65
2022/07/25 06:52:45;;;;;;;5.62;2.15;;;;;;;18.30;79.52;98177.59;1821018;78;21234;-66
2022/07/25 06:55:13;;;;;;;2.70;2.35;;;;;;;18.35;78.34;98174.63;1822195;77;20980;-66
2022/07/25 06:57:41;;;;;;;3.40;2.50;;;;;;;18.38;77.73;98173.97;1822213;77;20970;-64
2022/07/25 07:00:11;;;;;;;3.08;2.47;;;;;;;18.37;77.69;98162.33;1840555;77;20853;-64
2022/07/25 07:02:59;;;;;;;3.98;2.70;;;;;;;18.34;77.63;98158.16;1848016;77;20873;-66
2022/07/25 07:05:35;;;;;;;3.47;2.70;;;;;;;18.32;78.21;98157.11;1812955;77;21123;-67
2022/07/25 07:08:05;;;;;;;4.33;2.57;;;;;;;18.39;78.77;98151.16;1813867;77;21004;-64
2022/07/25 07:10:33;;;;;;;3.35;2.27;;;;;;;18.54;79.07;98161.36;1839420;76;21054;-68
2022/07/25 07:13:11;;;;;;;4.40;2.30;;;;;;;18.67;76.61;98160.26;1832365;77;21078;-63
2022/07/25 07:15:38;;;;;;;3.42;2.22;;;;;;;18.75;76.25;98162.05;1831754;77;20911;-68
2022/07/25 07:18:05;;;;;;;3.60;2.45;;;;;;;18.84;75.45;98155.95;1846309;77;21059;-64
2022/07/25 07:20:34;;;;;;;3.83;2.72;;;;;;;18.91;75.32;98148.03;1837648;77;20944;-63
2022/07/25 07:23:00;;;;;;;4.00;2.00;;;;;;;19.00;75.08;98143.30;1837066;77;20864;-64
2022/07/25 07:25:27;;;;;;;4.67;2.22;;;;;;;19.11;74.25;98146.31;1835252;77;20904;-64
2022/07/25 07:27:53;;;;;;;3.27;2.20;;;;;;;19.22;73.64;98149.37;1829672;77;20975;-64
2022/07/25 07:30:26;;;;;;;6.28;2.90;;;;;;;19.33;73.30;98153.19;1846929;77;21294;-66
2022/07/25 07:32:53;;;;;;;6.90;2.65;;;;;;;19.45;73.10;98147.77;1831452;77;21524;-66
2022/07/25 07:35:20;;;;;;;6.28;2.40;;;;;;;19.48;72.86;98145.69;1835504;77;20916;-65
2022/07/25 07:37:47;;;;;;;5.20;2.60;;;;;;;19.55;73.02;98141.83;1836828;77;20900;-67
2022/07/25 07:40:14;;;;;;;7.50;2.52;;;;;;;19.63;70.12;98143.05;1827613;77;20948;-65
2022/07/25 07:42:42;;;;;;;6.55;2.27;;;;;;;19.61;70.98;98140.46;1841686;77;21457;-65
2022/07/25 07:45:14;;;;;;;2.52;2.20;;;;;;;19.59;70.97;98137.30;1847213;77;21047;-66
2022/07/25 07:47:40;;;;;;;3.95;2.30;;;;;;;19.57;70.81;98135.50;1840049;77;21517;-64
2022/07/25 07:50:09;;;;;;;3.47;1.98;;;;;;;19.59;71.44;98144.09;1845748;77;21090;-65
2022/07/25 07:52:36;;;;;;;2.30;2.02;;;;;;;19.72;71.19;98148.33;1846247;77;21082;-64
2022/07/25 07:57:49;;;;;;;2.60;2.17;;;;;;;20.03;68.74;98142.99;1842445;77;20902;-65
2022/07/25 08:00:17;;;;;;;5.62;2.40;;;;;;;20.11;69.54;98148.05;1844813;77;20923;-66
2022/07/25 08:02:51;;;;;;;1.90;1.70;;;;;;;20.22;69.75;98145.06;1828405;77;21046;-66
2022/07/25 08:05:32;;;;;;;1.70;1.60;;;;;;;20.38;68.03;98143.15;1840203;77;21529;-63
2022/07/25 08:07:59;;;;;;;2.80;1.80;;;;;;;20.51;67.25;98134.34;1837316;77;21110;-65
2022/07/25 08:10:29;;;;;;;4.83;2.10;;;;;;;20.67;67.27;98133.77;1820011;77;20911;-64
2022/07/25 08:12:58;;;;;;;2.37;1.90;;;;;;;20.86;67.13;98140.64;1815217;79;21071;-66
2022/07/25 08:15:24;;;;;;;2.45;1.60;;;;;;;20.98;63.92;98136.45;1815148;79;20970;-65
2022/07/25 08:17:51;;;;;;;2.90;1.60;;;;;;;21.05;63.11;98135.28;1816248;77;21121;-63
2022/07/25 08:20:21;;;;;;;4.50;1.90;;;;;;;21.10;60.70;98143.19;1816561;77;21111;-64
2022/07/25 08:22:49;;;;;;;5.42;1.70;;;;;;;21.10;60.78;98135.02;1811420;77;20967;-65
2022/07/25 08:25:19;;;;;;;2.83;1.62;;;;;;;21.07;62.54;98141.16;1824380;78;21559;-66
2022/07/25 08:27:46;;;;;;;3.05;1.72;;;;;;;21.09;62.23;98141.59;1828120;78;20952;-66
2022/07/25 08:30:14;;;;;;;3.42;1.62;;;;;;;21.13;61.23;98135.08;1826675;77;20927;-60
2022/07/25 08:32:54;;;;;;;2.75;1.60;;;;;;;21.21;60.98;98132.51;1830200;77;21137;-62
2022/07/25 08:35:23;;;;;;;3.50;1.60;;;;;;;21.26;60.98;98128.16;1824915;77;20996;-63
2022/07/25 08:37:50;;;;;;;15.53;1.82;;;;;;;21.30;59.96;98128.44;1846083;77;21066;-61
2022/07/25 08:40:19;;;;;;;2.52;1.40;;;;;;;21.35;57.77;98132.25;1826176;77;20915;-64
2022/07/25 08:42:47;;;;;;;1.40;1.30;;;;;;;21.36;60.06;98129.72;1835047;77;21458;-63
2022/07/25 08:45:18;;;;;;;2.42;1.37;;;;;;;21.46;59.27;98135.19;1844466;77;21885;-65
2022/07/25 08:47:49;;;;;;;3.98;1.35;;;;;;;21.47;57.88;98128.03;1844971;77;21025;-66
2022/07/25 08:50:19;;;;;;;2.98;1.00;;;;;;;21.47;59.83;98130.76;1822312;77;21393;-67
2022/07/25 08:52:46;;;;;;;1.37;1.20;;;;;;;21.56;57.53;98121.80;1821130;77;20882;-64
2022/07/25 08:55:19;;;;;;;1.25;1.10;;;;;;;21.62;57.22;98118.22;1845335;77;20923;-66
2022/07/25 08:57:47;;;;;;;1.80;1.15;;;;;;;21.74;57.24;98118.05;1844374;77;21123;-63
2022/07/25 09:00:18;;;;;;;1.20;1.10;;;;;;;21.91;58.76;98119.00;1826084;77;20924;-65
2022/07/25 09:02:57;;;;;;;1.42;1.05;;;;;;;22.03;58.17;98112.02;1821928;77;20908;-64
2022/07/25 09:05:25;;;;;;;2.80;1.00;;;;;;;22.06;57.59;98117.33;1835756;77;21027;-66
2022/07/25 09:07:54;;;;;;;1.10;1.00;;;;;;;21.96;55.67;98115.19;1813777;77;20964;-62
2022/07/25 09:10:24;;;;;;;1.05;0.85;;;;;;;21.91;56.32;98131.27;1808984;79;21407;-62
2022/07/25 09:13:01;;;;;;;2.10;0.90;;;;;;;21.97;55.19;98119.50;1811838;77;20899;-63
2022/07/25 09:15:40;;;;;;;3.50;1.87;;;;;;;22.14;54.34;98118.45;1824152;77;21050;-62
2022/07/25 09:18:11;;;;;;;3.20;2.12;;;;;;;22.27;51.49;98115.78;1846225;77;21006;-63
2022/07/25 09:20:45;;;;;;;1.82;1.20;;;;;;;22.34;52.39;98124.66;1849141;77;20860;-64
2022/07/25 09:23:32;;;;;;;3.40;1.32;;;;;;;22.47;52.86;98128.77;1842152;77;21182;-65
2022/07/25 09:26:10;;;;;;;4.40;1.00;;;;;;;22.51;51.57;98118.72;1832015;77;21336;-62
2022/07/25 09:28:44;;;;;;;1.40;1.10;;;;;;;22.48;50.98;98122.17;1836414;77;20860;-64
2022/07/25 09:31:20;;;;;;;1.77;0.90;;;;;;;22.39;50.65;98112.08;1838581;77;21403;-62
2022/07/25 09:33:59;;;;;;;1.55;1.17;;;;;;;22.36;52.49;98109.50;1833556;77;21512;-62
2022/07/25 09:36:26;;;;;;;2.17;1.05;;;;;;;22.45;51.13;98109.24;1820783;77;21112;-65
2022/07/25 09:39:04;;;;;;;3.15;0.85;;;;;;;22.52;51.31;98105.87;1840665;77;20999;-64
2022/07/25 09:41:39;;;;;;;2.27;1.07;;;;;;;22.60;50.65;98100.72;1848136;77;20912;-65
2022/07/25 09:44:32;;;;;;;1.50;1.02;;;;;;;22.70;51.59;98102.86;1848950;77;20963;-64
2022/07/25 09:47:11;;;;;;;0.80;0.80;;;;;;;22.84;52.10;98099.78;1842726;77;21392;-63
2022/07/25 09:49:45;;;;;;;1.67;0.90;;;;;;;23.03;52.52;98099.64;1841036;78;21695;-64
2022/07/25 09:52:30;;;;;;;1.70;1.00;;;;;;;23.23;51.63;98099.52;1840993;78;21477;-63
2022/07/25 09:55:09;;;;;;;1.80;1.05;;;;;;;23.30;51.28;98107.23;1841143;77;20971;-63
2022/07/25 09:57:39;;;;;;;3.25;1.10;;;;;;;23.40;51.52;98110.73;1835171;77;21126;-63
2022/07/25 10:00:08;;;;;;;2.20;1.10;;;;;;;23.42;50.53;98109.77;1848742;77;21516;-62
2022/07/25 10:03:20;;;;;;;4.12;1.10;;;;;;;23.42;48.52;98110.34;1845417;77;23051;-61
2022/07/25 10:06:22;;;;;;;1.50;1.00;;;;;;;23.37;49.48;98097.80;1832655;77;21493;-63
2022/07/25 10:08:52;;;;;;;3.77;0.90;;;;;;;23.47;51.21;98103.19;1804122;77;21006;-65
2022/07/25 10:11:21;;;;;;;3.17;1.10;;;;;;;23.51;48.75;98099.91;1846158;77;20896;-61
2022/07/25 10:13:48;;;;;;;1.67;0.98;;;;;;;23.42;49.10;98100.20;1824477;77;21002;-66
2022/07/25 10:16:20;;;;;;;4.22;1.07;;;;;;;23.38;48.70;98096.66;1837493;77;21759;-62
2022/07/25 10:18:53;;;;;;;2.30;1.05;;;;;;;23.26;48.91;98105.62;1843146;77;20932;-63
2022/07/25 10:21:20;;;;;;;1.07;0.90;;;;;;;23.22;50.58;98094.66;1848748;77;20998;-63
2022/07/25 10:24:05;;;;;;;2.65;0.82;;;;;;;23.34;49.85;98091.67;1848116;77;21053;-64
2022/07/25 10:26:33;;;;;;;1.77;0.90;;;;;;;23.46;48.85;98093.44;1849102;77;21081;-63
2022/07/25 10:29:08;;;;;;;1.25;1.00;;;;;;;23.56;49.20;98090.02;1846260;77;21117;-62
2022/07/25 10:31:41;;;;;;;1.20;1.05;;;;;;;23.60;47.86;98084.04;1849001;77;21511;-62
2022/07/25 10:34:15;;;;;;;2.30;1.55;;;;;;;23.63;48.66;98088.16;1847321;77;21563;-62
2022/07/25 10:36:48;;;;;;;0.95;0.90;;;;;;;23.65;48.12;98082.31;1848171;77;20968;-62
2022/07/25 10:39:18;;;;;;;2.65;1.15;;;;;;;23.61;48.39;98079.55;1848575;77;20970;-64
2022/07/25 10:42:01;;;;;;;4.28;1.17;;;;;;;23.73;49.20;98074.41;1848281;77;21178;-62
2022/07/25 10:44:30;;;;;;;1.87;1.22;;;;;;;23.84;47.99;98069.83;1826161;77;21067;-63
2022/07/25 10:47:10;;;;;;;2.30;1.15;;;;;;;23.83;47.03;98064.75;1844785;77;20872;-61
2022/07/25 10:49:48;;;;;;;1.72;0.90;;;;;;;23.68;48.02;98064.59;1849315;77;20926;-65
2022/07/25 10:52:17;;;;;;;1.47;1.05;;;;;;;23.66;47.83;98060.66;1849274;77;20897;-63
2022/07/25 10:54:59;;;;;;;2.42;1.00;;;;;;;23.69;48.18;98064.02;1848982;77;21223;-63
2022/07/25 10:57:27;;;;;;;5.35;1.20;;;;;;;23.74;47.88;98062.33;1847752;77;20991;-65
2022/07/25 10:59:53;;;;;;;4.28;1.45;;;;;;;23.69;48.09;98054.45;1818600;77;20959;-66
2022/07/25 11:02:20;;;;;;;3.55;1.25;;;;;;;23.68;48.28;98046.03;1823239;78;20875;-64
2022/07/25 11:05:02;;;;;;;5.92;1.20;;;;;;;23.79;48.59;98051.02;1792884;78;21517;-65
2022/07/25 11:07:34;;;;;;;8.83;1.40;;;;;;;23.92;47.10;98038.66;1826342;78;21113;-63
2022/07/25 11:10:00;;;;;;;1.77;1.10;;;;;;;24.02;48.33;98037.20;1826608;78;20963;-62
2022/07/25 11:12:28;;;;;;;1.85;1.20;;;;;;;24.16;48.31;98037.36;1833369;78;20947;-65
2022/07/25 11:15:01;;;;;;;6.47;1.55;;;;;;;24.27;47.56;98037.64;1834213;78;20955;-65
2022/07/25 11:17:28;;;;;;;1.65;1.20;;;;;;;24.36;48.45;98031.27;1837875;78;20869;-62
2022/07/25 11:20:09;;;;;;;3.15;1.20;;;;;;;24.45;47.04;98031.72;1822452;78;21109;-61
2022/07/25 11:22:36;;;;;;;2.15;1.15;;;;;;;24.50;47.38;98027.84;1818320;79;21036;-63
2022/07/25 11:25:13;;;;;;;2.85;1.10;;;;;;;24.54;45.85;98033.36;1818415;79;20955;-62
2022/07/25 11:27:40;;;;;;;5.17;0.93;;;;;;;24.53;46.17;98037.25;1818527;79;20927;-65
2022/07/25 11:30:15;;;;;;;1.50;1.30;;;;;;;24.64;46.53;98028.52;1816950;78;20998;-65
2022/07/25 11:32:48;;;;;;;2.35;1.10;;;;;;;24.75;45.70;98033.50;1813091;79;22072;-64
2022/07/25 11:35:15;;;;;;;1.25;0.90;;;;;;;24.83;44.63;98028.28;1812816;79;20884;-65
2022/07/25 11:37:47;;;;;;;1.85;1.30;;;;;;;24.90;45.32;98031.05;1824190;78;21212;-63
2022/07/25 11:40:15;;;;;;;3.37;1.20;;;;;;;25.05;43.74;98028.03;1831086;78;20857;-66
2022/07/25 11:42:44;;;;;;;2.65;1.20;;;;;;;25.19;44.96;98023.19;1838401;78;20976;-63
2022/07/25 11:45:23;;;;;;;4.35;1.27;;;;;;;25.46;45.17;98029.20;1838653;78;21684;-66
2022/07/25 11:48:06;;;;;;;1.60;1.12;;;;;;;25.64;43.66;98028.09;1838268;78;20909;-66
2022/07/25 11:50:35;;;;;;;1.72;1.12;;;;;;;25.45;43.40;98027.05;1826210;78;21010;-64
2022/07/25 11:53:04;;;;;;;3.08;1.20;;;;;;;25.36;44.13;98028.55;1831677;78;21035;-64
2022/07/25 11:55:35;;;;;;;1.42;0.98;;;;;;;25.51;44.09;98032.34;1816405;78;20876;-64
2022/07/25 11:58:02;;;;;;;1.22;1.07;;;;;;;25.66;44.37;98017.51;1821684;77;21079;-63
2022/07/25 12:00:29;;;;;;;1.35;1.05;;;;;;;25.77;42.84;98023.80;1849322;77;20936;-65
2022/07/25 12:03:08;;;;;;;2.27;1.12;;;;;;;25.92;43.98;98016.38;1846716;77;20868;-65
2022/07/25 12:05:35;;;;;;;2.90;1.12;;;;;;;26.30;43.48;98012.91;1826507;77;20912;-62
2022/07/25 12:08:20;;;;;;;2.27;1.10;;;;;;;26.74;43.70;98016.56;1813048;79;20955;-63
2022/07/25 12:10:48;;;;;;;1.72;1.22;;;;;;;27.13;42.79;98012.37;1813126;77;22064;-63
2022/07/25 12:13:28;;;;;;;1.62;1.30;;;;;;;27.06;41.29;98015.16;1837319;77;21402;-63
2022/07/25 12:15:56;;;;;;;1.72;1.25;;;;;;;26.64;41.25;98011.87;1825658;77;20873;-66
2022/07/25 12:18:23;;;;;;;2.15;1.30;;;;;;;26.48;41.77;98008.76;1842550;77;21426;-64
2022/07/25 12:20:49;;;;;;;1.65;0.90;;;;;;;26.48;41.77;98008.76;1822112;78;21363;-66
2022/07/25 12:23:17;;;;;;;2.17;1.05;;;;;;;26.67;40.44;98008.92;1821904;78;21236;-65
2022/07/25 12:25:45;;;;;;;1.62;0.98;;;;;;;26.87;40.89;98009.52;1818443;77;20963;-65
2022/07/25 12:28:12;;;;;;;1.70;1.00;;;;;;;26.87;40.89;98009.52;1812946;79;20900;-63
2022/07/25 12:30:40;;;;;;;3.40;1.10;;;;;;;26.80;41.31;97999.92;1820314;77;20975;-65
2022/07/25 12:33:07;;;;;;;1.40;1.20;;;;;;;26.85;40.61;98001.48;1847509;77;21540;-66
2022/07/25 12:35:36;;;;;;;1.57;1.17;;;;;;;26.86;42.85;97996.95;1821897;78;21455;-65
2022/07/25 12:38:03;;;;;;;1.40;1.05;;;;;;;26.92;41.99;98006.34;1820470;77;20951;-64
2022/07/25 12:40:29;;;;;;;1.98;1.10;;;;;;;26.72;41.94;97993.41;1842765;77;20864;-66
2022/07/25 12:42:57;;;;;;;1.20;1.10;;;;;;;26.66;42.73;97997.17;1820529;77;21062;-66
2022/07/25 12:45:24;;;;;;;3.83;1.00;;;;;;;26.86;42.72;97999.70;1812988;79;20920;-62
2022/07/25 12:47:51;;;;;;;2.08;1.05;;;;;;;27.21;41.35;97991.12;1812956;79;21109;-64
2022/07/25 12:50:18;;;;;;;3.42;1.10;;;;;;;27.25;40.18;97993.28;1812649;79;20963;-63
2022/07/25 12:52:45;;;;;;;1.22;1.00;;;;;;;26.95;40.76;97993.19;1813654;77;20904;-63
2022/07/25 12:55:15;;;;;;;1.25;1.05;;;;;;;26.61;41.50;97996.20;1834067;77;20919;-62
2022/07/25 12:57:41;;;;;;;2.67;0.95;;;;;;;26.31;42.11;97995.23;1849665;77;21396;-66
2022/07/25 13:00:13;;;;;;;1.80;1.17;;;;;;;26.30;42.54;97997.80;1849599;77;21097;-63
2022/07/25 13:02:40;;;;;;;2.58;1.10;;;;;;;26.55;42.48;97988.15;1849606;77;20903;-63
2022/07/25 13:05:07;;;;;;;2.98;1.10;;;;;;;26.81;41.64;97990.48;1849646;77;20943;-64
2022/07/25 13:07:34;;;;;;;1.72;1.20;;;;;;;26.89;41.10;97987.92;1849817;77;21443;-65
2022/07/25 13:10:02;;;;;;;2.50;1.02;;;;;;;26.78;40.89;97985.01;1849982;77;21446;-64
2022/07/25 13:12:30;;;;;;;2.30;0.98;;;;;;;26.80;41.53;97988.93;1849643;77;21173;-64
2022/07/25 13:14:57;;;;;;;1.98;1.20;;;;;;;26.80;41.85;97982.06;1849683;77;20825;-65
2022/07/25 13:17:23;;;;;;;2.47;0.98;;;;;;;26.91;41.83;97984.77;1849602;77;20908;-65
2022/07/25 13:19:50;;;;;;;1.72;1.07;;;;;;;26.71;41.29;97982.25;1849626;77;20888;-65
2022/07/25 13:22:17;;;;;;;1.27;1.00;;;;;;;26.48;43.07;97971.10;1849760;77;20899;-63
2022/07/25 13:24:43;;;;;;;3.27;1.20;;;;;;;26.68;43.18;97972.84;1849619;77;21294;-65
2022/07/25 13:27:11;;;;;;;1.67;0.90;;;;;;;27.10;42.86;97974.69;1849693;77;20868;-62
2022/07/25 13:29:38;;;;;;;3.10;0.90;;;;;;;27.68;41.88;97969.88;1849819;77;20899;-64
2022/07/25 13:32:05;;;;;;;4.10;1.00;;;;;;;28.20;41.64;97968.73;1849604;77;20923;-62
2022/07/25 13:34:32;;;;;;;2.72;1.00;;;;;;;28.59;38.98;97964.83;1849603;77;20876;-64
2022/07/25 13:36:58;;;;;;;2.22;1.12;;;;;;;28.68;38.58;97969.28;1849709;77;21089;-64
2022/07/25 13:39:30;;;;;;;3.75;1.07;;;;;;;28.84;39.29;97959.84;1849505;77;20857;-63
2022/07/25 13:41:58;;;;;;;1.20;1.00;;;;;;;29.04;39.09;97959.43;1849608;77;20830;-65
2022/07/25 13:44:24;;;;;;;1.20;0.93;;;;;;;29.19;38.80;97964.17;1849702;77;20924;-63
2022/07/25 13:46:51;;;;;;;4.40;1.00;;;;;;;29.41;38.12;97957.98;1849717;77;20915;-65
2022/07/25 13:49:19;;;;;;;2.65;1.00;;;;;;;29.58;36.62;97961.69;1849676;77;20868;-66
2022/07/25 13:51:46;;;;;;;1.52;1.20;;;;;;;29.60;37.14;97955.94;1849649;77;20954;-64
2022/07/25 13:54:13;;;;;;;1.37;1.07;;;;;;;29.63;35.81;97949.56;1849601;77;20951;-63
2022/07/25 13:56:41;;;;;;;3.22;1.20;;;;;;;29.67;36.70;97953.08;1849684;77;21348;-63
2022/07/25 13:59:08;;;;;;;1.82;1.00;;;;;;;29.85;36.20;97958.94;1849450;77;20876;-64
2022/07/25 14:01:34;;;;;;;3.20;1.17;;;;;;;29.93;36.05;97954.88;1849714;77;21223;-63
2022/07/25 14:04:02;;;;;;;2.00;1.20;;;;;;;30.01;35.27;97944.67;1849531;77;20908;-63
2022/07/25 14:06:29;;;;;;;3.22;1.00;;;;;;;30.19;35.45;97948.53;1849723;77;20903;-65
2022/07/25 14:08:55;;;;;;;3.70;0.98;;;;;;;30.35;35.06;97943.14;1849601;77;20908;-66
2022/07/25 14:11:22;;;;;;;2.37;1.00;;;;;;;30.38;34.28;97938.16;1849644;77;20907;-63
2022/07/25 14:13:50;;;;;;;2.22;0.93;;;;;;;30.21;33.93;97928.17;1849578;77;20924;-63
2022/07/25 14:16:18;;;;;;;1.92;0.90;;;;;;;29.95;34.61;97946.36;1849638;77;20873;-63
2022/07/25 14:18:45;;;;;;;5.55;0.90;;;;;;;29.76;35.09;97934.03;1849941;77;21516;-63
2022/07/25 14:21:11;;;;;;;1.50;1.00;;;;;;;29.81;36.51;97937.52;1849770;77;20907;-64
2022/07/25 14:23:38;;;;;;;1.35;0.82;;;;;;;30.00;35.99;97931.30;1849808;77;20876;-63
2022/07/25 14:26:05;;;;;;;2.75;0.70;;;;;;;30.24;35.59;97928.09;1849900;77;21089;-64
2022/07/25 14:28:32;;;;;;;1.67;0.85;;;;;;;30.34;34.23;97920.84;1849812;77;20832;-65
2022/07/25 14:30:59;;;;;;;2.30;0.80;;;;;;;30.31;34.09;97922.44;1849882;77;20899;-64
2022/07/25 14:33:25;;;;;;;3.70;0.90;;;;;;;30.20;33.99;97923.83;1849760;77;20958;-64
2022/07/25 14:35:52;;;;;;;1.37;0.80;;;;;;;30.23;34.18;97920.23;1849784;77;21006;-66
2022/07/25 14:38:20;;;;;;;1.60;0.93;;;;;;;30.26;34.76;97922.95;1849815;77;20884;-62
2022/07/25 14:40:47;;;;;;;1.52;0.72;;;;;;;30.10;35.06;97923.44;1849783;77;20908;-62
2022/07/25 14:43:13;;;;;;;1.92;0.90;;;;;;;29.81;34.30;97920.95;1849772;77;20978;-63
2022/07/25 14:45:40;;;;;;;1.60;0.75;;;;;;;29.47;34.60;97916.30;1849843;77;20899;-64
2022/07/25 14:48:07;;;;;;;1.27;0.80;;;;;;;29.25;35.52;97915.06;1849889;77;20924;-63
2022/07/25 14:50:33;;;;;;;2.33;0.85;;;;;;;29.36;36.31;97906.63;1849857;77;21095;-65
2022/07/25 14:53:00;;;;;;;1.12;1.00;;;;;;;29.41;36.77;97911.67;1849766;77;20832;-66
2022/07/25 14:55:27;;;;;;;2.60;1.10;;;;;;;29.58;36.37;97910.02;1850088;77;21415;-62
2022/07/25 14:57:54;;;;;;;1.40;0.88;;;;;;;29.75;35.33;97904.83;1849688;77;20920;-64
2022/07/25 15:00:20;;;;;;;1.80;0.95;;;;;;;29.61;35.03;97903.67;1855083;77;20868;-64
2022/07/25 15:02:47;;;;;;;2.50;0.95;;;;;;;29.39;35.92;97906.59;1858206;77;21115;-62
2022/07/25 15:05:14;;;;;;;2.95;0.93;;;;;;;29.27;35.94;97903.60;1858161;77;20911;-65
2022/07/25 15:07:41;;;;;;;1.20;0.90;;;;;;;28.87;36.29;97905.28;1858055;77;20872;-63
2022/07/25 15:10:08;;;;;;;1.27;1.00;;;;;;;28.59;36.83;97906.41;1858042;77;20947;-63
2022/07/25 15:12:36;;;;;;;1.87;0.82;;;;;;;28.48;36.44;97907.69;1858222;77;20919;-63
2022/07/25 15:15:05;;;;;;;1.92;0.98;;;;;;;28.58;37.05;97902.05;1858107;77;20923;-64
2022/07/25 15:17:33;;;;;;;4.05;0.80;;;;;;;28.60;36.97;97901.66;1858098;77;20907;-66
2022/07/25 15:20:00;;;;;;;1.52;0.98;;;;;;;28.80;37.35;97897.89;1858173;77;20891;-66
2022/07/25 15:22:29;;;;;;;1.87;0.90;;;;;;;29.14;37.13;97894.48;1858127;77;20884;-63
2022/07/25 15:24:56;;;;;;;3.30;1.02;;;;;;;29.53;34.79;97896.72;1858109;77;20970;-65
2022/07/25 15:27:23;;;;;;;2.67;1.00;;;;;;;29.56;34.25;97901.38;1858189;77;21220;-65
2022/07/25 15:29:50;;;;;;;1.22;1.00;;;;;;;29.51;35.07;97892.19;1858098;77;20867;-66
2022/07/25 15:32:17;;;;;;;1.50;0.75;;;;;;;29.69;34.67;97889.95;1858308;77;21485;-66
2022/07/25 15:34:44;;;;;;;1.67;0.90;;;;;;;29.81;34.37;97890.59;1858133;77;21419;-63
2022/07/25 15:37:11;;;;;;;1.30;0.72;;;;;;;29.88;35.25;97890.47;1858151;77;21406;-65
2022/07/25 15:39:38;;;;;;;2.80;1.00;;;;;;;30.04;34.50;97894.13;1858058;77;21250;-66
2022/07/25 15:42:05;;;;;;;1.35;0.85;;;;;;;30.13;34.32;97897.13;1858086;77;20912;-65
2022/07/25 15:44:33;;;;;;;2.02;1.00;;;;;;;30.09;33.46;97890.11;1858165;77;20994;-62
2022/07/25 15:46:59;;;;;;;1.10;1.00;;;;;;;29.95;33.79;97893.11;1858149;77;20888;-65
2022/07/25 15:49:25;;;;;;;1.32;1.10;;;;;;;29.62;34.32;97892.05;1858201;77;20991;-66
2022/07/25 15:51:53;;;;;;;4.15;1.20;;;;;;;29.31;34.25;97883.64;1858052;77;22077;-63
2022/07/25 15:54:19;;;;;;;1.62;1.10;;;;;;;28.86;35.33;97887.17;1857998;77;20864;-65
2022/07/25 15:56:46;;;;;;;2.50;1.32;;;;;;;28.39;36.62;97891.04;1858146;77;20939;-63
2022/07/25 15:59:13;;;;;;;3.25;1.10;;;;;;;27.97;37.25;97884.55;1857393;77;20872;-63
2022/07/25 16:01:41;;;;;;;2.58;1.27;;;;;;;27.53;38.07;97893.56;1849260;77;20872;-63
2022/07/25 16:04:07;;;;;;;1.42;1.10;;;;;;;27.11;38.57;97887.69;1849214;77;21174;-64
2022/07/25 16:06:35;;;;;;;5.90;1.40;;;;;;;26.72;39.45;97893.94;1849098;77;20959;-64
2022/07/25 16:09:02;;;;;;;1.42;1.10;;;;;;;26.33;40.57;97890.53;1849098;77;20872;-65
2022/07/25 16:11:30;;;;;;;1.50;1.07;;;;;;;26.01;40.89;97882.89;1849171;77;20848;-65
2022/07/25 16:13:58;;;;;;;2.05;1.27;;;;;;;25.81;41.88;97879.18;1849190;77;21291;-65
2022/07/25 16:16:24;;;;;;;3.58;1.57;;;;;;;25.67;42.22;97877.05;1849197;77;22021;-63
2022/07/25 16:18:52;;;;;;;1.90;1.50;;;;;;;25.49;42.67;97878.40;1849065;77;20865;-63
2022/07/25 16:21:19;;;;;;;3.35;1.60;;;;;;;25.25;42.38;97876.37;1849150;77;20837;-62
2022/07/25 16:23:45;;;;;;;5.25;1.30;;;;;;;25.04;43.64;97876.32;1849057;77;20908;-62
2022/07/25 16:26:12;;;;;;;2.05;1.17;;;;;;;24.86;43.69;97881.77;1849112;77;20908;-65
2022/07/25 16:28:39;;;;;;;2.12;1.20;;;;;;;24.70;43.75;97873.65;1849070;77;22036;-62
2022/07/25 16:31:06;;;;;;;3.08;1.50;;;;;;;24.53;44.06;97872.98;1849017;77;20876;-66
2022/07/25 16:33:32;;;;;;;3.77;1.47;;;;;;;24.35;44.67;97881.87;1849158;77;20899;-63
2022/07/25 16:35:59;;;;;;;5.00;1.80;;;;;;;24.06;45.49;97884.25;1849130;77;20856;-64
2022/07/25 16:38:27;;;;;;;5.05;1.70;;;;;;;23.95;46.41;97882.01;1849062;77;20976;-64
2022/07/25 16:40:54;;;;;;;7.60;1.90;;;;;;;23.95;46.41;97882.01;1849125;77;21113;-64
2022/07/25 16:43:22;;;;;;;5.37;1.90;;;;;;;23.85;47.08;97884.08;1849116;77;20930;-66
2022/07/25 16:45:48;;;;;;;4.30;2.00;;;;;;;23.75;47.64;97873.26;1849173;77;20861;-66
2022/07/25 16:48:15;;;;;;;4.12;1.80;;;;;;;23.67;47.63;97877.09;1849120;77;20963;-65
2022/07/25 16:50:41;;;;;;;4.67;1.82;;;;;;;23.62;48.13;97879.41;1849168;77;20848;-63
2022/07/25 16:53:07;;;;;;;2.02;1.75;;;;;;;23.58;48.61;97875.83;1849268;77;21357;-63
2022/07/25 16:55:34;;;;;;;3.55;2.20;;;;;;;23.49;48.86;97876.73;1849062;77;21038;-64
2022/07/25 16:58:01;;;;;;;3.00;2.17;;;;;;;23.39;49.12;97873.34;1849127;77;20903;-65
2022/07/25 17:00:27;;;;;;;3.45;2.00;;;;;;;23.31;49.62;97875.77;1844375;77;21427;-65
2022/07/25 17:02:54;;;;;;;3.90;2.22;;;;;;;23.23;49.94;97874.91;1838525;78;20951;-65
2022/07/25 17:05:20;;;;;;;2.85;2.15;;;;;;;23.13;50.89;97876.36;1838415;78;21236;-65
2022/07/25 17:07:50;;;;;;;2.87;2.10;;;;;;;22.98;51.84;97875.23;1838324;78;20948;-65
2022/07/25 17:10:19;;;;;;;3.80;2.30;;;;;;;22.86;52.35;97872.75;1838482;78;20908;-65
2022/07/25 17:12:45;;;;;;;4.62;2.30;;;;;;;22.75;52.56;97875.34;1838341;78;21424;-63
2022/07/25 17:15:12;;;;;;;5.22;1.98;;;;;;;22.68;52.99;97877.99;1838513;78;21364;-62
2022/07/25 17:17:39;;;;;;;3.62;2.30;;;;;;;22.58;53.27;97873.18;1838397;78;21228;-63
2022/07/25 17:20:08;;;;;;;3.92;2.40;;;;;;;22.46;53.53;97870.11;1838296;78;20971;-63
2022/07/25 17:22:35;;;;;;;5.72;2.58;;;;;;;22.38;54.32;97873.09;1838559;78;21487;-63
2022/07/25 17:25:01;;;;;;;5.12;2.67;;;;;;;22.31;54.85;97868.91;1838682;77;21423;-62
2022/07/25 17:27:28;;;;;;;4.90;2.95;;;;;;;22.26;55.24;97873.32;1838362;78;20837;-62
2022/07/25 17:29:55;;;;;;;8.28;3.27;;;;;;;22.19;55.62;97873.22;1808933;78;21450;-64
2022/07/25 17:32:21;;;;;;;5.58;3.05;;;;;;;22.11;55.61;97878.38;1838645;78;21380;-64
2022/07/25 17:34:48;;;;;;;6.45;2.90;;;;;;;22.01;55.81;97873.55;1838485;78;20888;-62
2022/07/25 17:37:14;;;;;;;4.37;2.85;;;;;;;21.91;55.35;97872.81;1838368;78;20971;-64
2022/07/25 17:39:41;;;;;;;6.00;2.75;;;;;;;21.78;56.33;97874.37;1838479;78;20912;-64
2022/07/25 17:42:08;;;;;;;6.72;3.27;;;;;;;21.63;56.81;97868.47;1838486;78;21264;-63
2022/07/25 17:44:34;;;;;;;6.47;3.27;;;;;;;21.55;57.32;97872.22;1838311;78;20959;-63
2022/07/25 17:47:02;;;;;;;6.72;3.35;;;;;;;21.47;57.69;97870.55;1838466;78;20972;-65
2022/07/25 17:49:29;;;;;;;7.45;3.25;;;;;;;21.40;57.91;97868.27;1838370;78;20884;-61
2022/07/25 17:51:55;;;;;;;5.58;2.83;;;;;;;21.29;57.94;97861.86;1838508;77;20980;-63